sensor_id;sensor_type;location;lat;lon;timestamp;temperature;humidity
37528;DHT22;23372;52.050;4.810;2023-06-14T00:01:37;18.10;99.90
37528;DHT22;23372;52.050;4.810;2023-06-14T00:04:03;18.00;99.90
37528;DHT22;23372;52.050;4.810;2023-06-14T00:06:30;17.90;99.90
37528;DHT22;23372;52.050;4.810;2023-06-14T00:08:56;17.90;99.90
37528;DHT22;23372;52.050;4.810;2023-06-14T00:11:21;17.90;99.90
37528;DHT22;23372;52.050;4.810;2023-06-14T00:13:47;17.90;99.90
37528;DHT22;23372;52.050;4.810;2023-06-14T00:16:13;17.90;99.90
37528;DHT22;23372;52.050;4.810;2023-06-14T00:18:38;17.90;99.90
37528;DHT22;23372;52.050;4.810;2023-06-14T00:21:05;17.80;99.90
37528;DHT22;23372;52.050;4.810;2023-06-14T00:23:31;17.80;99.90
37528;DHT22;23372;52.050;4.810;2023-06-14T00:25:56;17.80;99.90
37528;DHT22;23372;52.050;4.810;2023-06-14T00:28:22;17.80;99.90
37528;DHT22;23372;52.050;4.810;2023-06-14T00:30:48;17.70;99.90
37528;DHT22;23372;52.050;4.810;2023-06-14T00:33:13;17.70;99.90
37528;DHT22;23372;52.050;4.810;2023-06-14T00:35:39;17.60;99.90
37528;DHT22;23372;52.050;4.810;2023-06-14T00:38:05;17.60;99.90
37528;DHT22;23372;52.050;4.810;2023-06-14T00:40:31;17.60;99.90
37528;DHT22;23372;52.050;4.810;2023-06-14T00:42:56;17.60;99.90
37528;DHT22;23372;52.050;4.810;2023-06-14T00:45:22;17.50;99.90
37528;DHT22;23372;52.050;4.810;2023-06-14T00:47:48;17.50;99.90
37528;DHT22;23372;52.050;4.810;2023-06-14T00:50:16;17.50;99.90
37528;DHT22;23372;52.050;4.810;2023-06-14T00:52:42;17.50;99.90
37528;DHT22;23372;52.050;4.810;2023-06-14T00:55:08;17.40;99.90
37528;DHT22;23372;52.050;4.810;2023-06-14T00:57:33;17.40;99.90
37528;DHT22;23372;52.050;4.810;2023-06-14T01:00:03;17.30;99.90
37528;DHT22;23372;52.050;4.810;2023-06-14T01:02:30;17.30;99.90
37528;DHT22;23372;52.050;4.810;2023-06-14T01:04:55;17.30;99.90
37528;DHT22;23372;52.050;4.810;2023-06-14T01:13:11;17.20;99.90
37528;DHT22;23372;52.050;4.810;2023-06-14T01:15:38;17.20;99.90
37528;DHT22;23372;52.050;4.810;2023-06-14T01:18:05;17.20;99.90
37528;DHT22;23372;52.050;4.810;2023-06-14T01:20:32;17.30;99.90
37528;DHT22;23372;52.050;4.810;2023-06-14T01:22:59;17.20;99.90
37528;DHT22;23372;52.050;4.810;2023-06-14T01:25:25;17.10;99.90
37528;DHT22;23372;52.050;4.810;2023-06-14T01:28:00;17.00;99.90
37528;DHT22;23372;52.050;4.810;2023-06-14T01:30:28;17.00;99.90
37528;DHT22;23372;52.050;4.810;2023-06-14T01:32:55;16.90;99.90
37528;DHT22;23372;52.050;4.810;2023-06-14T01:35:21;16.90;99.90
37528;DHT22;23372;52.050;4.810;2023-06-14T01:37:48;16.90;99.90
37528;DHT22;23372;52.050;4.810;2023-06-14T01:40:15;16.90;99.90
37528;DHT22;23372;52.050;4.810;2023-06-14T01:42:42;16.90;99.90
37528;DHT22;23372;52.050;4.810;2023-06-14T01:45:10;16.80;99.90
37528;DHT22;23372;52.050;4.810;2023-06-14T01:47:36;16.70;99.90
37528;DHT22;23372;52.050;4.810;2023-06-14T01:50:03;16.70;99.90
37528;DHT22;23372;52.050;4.810;2023-06-14T01:52:29;16.70;99.90
37528;DHT22;23372;52.050;4.810;2023-06-14T01:54:54;16.70;99.90
37528;DHT22;23372;52.050;4.810;2023-06-14T01:57:21;16.70;99.90
37528;DHT22;23372;52.050;4.810;2023-06-14T01:59:47;16.70;99.90
37528;DHT22;23372;52.050;4.810;2023-06-14T02:02:14;16.70;99.90
37528;DHT22;23372;52.050;4.810;2023-06-14T02:04:40;16.70;99.90
37528;DHT22;23372;52.050;4.810;2023-06-14T02:07:06;16.60;99.90
37528;DHT22;23372;52.050;4.810;2023-06-14T02:09:31;16.50;99.90
37528;DHT22;23372;52.050;4.810;2023-06-14T02:11:57;16.40;99.90
37528;DHT22;23372;52.050;4.810;2023-06-14T02:14:22;16.40;99.90
37528;DHT22;23372;52.050;4.810;2023-06-14T02:16:48;16.30;99.90
37528;DHT22;23372;52.050;4.810;2023-06-14T02:19:18;16.30;99.90
37528;DHT22;23372;52.050;4.810;2023-06-14T02:21:44;16.30;99.90
37528;DHT22;23372;52.050;4.810;2023-06-14T02:24:10;16.30;99.90
37528;DHT22;23372;52.050;4.810;2023-06-14T02:26:36;16.30;99.90
37528;DHT22;23372;52.050;4.810;2023-06-14T02:29:05;16.20;99.90
37528;DHT22;23372;52.050;4.810;2023-06-14T02:31:31;16.20;99.90
37528;DHT22;23372;52.050;4.810;2023-06-14T02:33:57;16.10;99.90
37528;DHT22;23372;52.050;4.810;2023-06-14T02:36:23;16.10;99.90
37528;DHT22;23372;52.050;4.810;2023-06-14T02:38:48;16.10;99.90
37528;DHT22;23372;52.050;4.810;2023-06-14T02:41:14;16.10;99.90
37528;DHT22;23372;52.050;4.810;2023-06-14T02:43:39;16.00;99.90
37528;DHT22;23372;52.050;4.810;2023-06-14T02:46:05;16.10;99.90
37528;DHT22;23372;52.050;4.810;2023-06-14T02:48:31;16.00;99.90
37528;DHT22;23372;52.050;4.810;2023-06-14T02:50:57;16.00;99.90
37528;DHT22;23372;52.050;4.810;2023-06-14T02:53:22;16.10;99.90
37528;DHT22;23372;52.050;4.810;2023-06-14T02:55:48;16.10;99.90
37528;DHT22;23372;52.050;4.810;2023-06-14T02:58:14;16.10;99.90
37528;DHT22;23372;52.050;4.810;2023-06-14T03:00:39;16.00;99.90
37528;DHT22;23372;52.050;4.810;2023-06-14T03:03:06;16.10;99.90
37528;DHT22;23372;52.050;4.810;2023-06-14T03:05:43;16.00;99.90
37528;DHT22;23372;52.050;4.810;2023-06-14T03:08:13;16.00;99.90
37528;DHT22;23372;52.050;4.810;2023-06-14T03:10:42;16.00;99.90
37528;DHT22;23372;52.050;4.810;2023-06-14T03:13:08;16.00;99.90
37528;DHT22;23372;52.050;4.810;2023-06-14T03:15:36;15.90;99.90
37528;DHT22;23372;52.050;4.810;2023-06-14T03:18:01;15.80;99.90
37528;DHT22;23372;52.050;4.810;2023-06-14T03:20:27;15.70;99.90
37528;DHT22;23372;52.050;4.810;2023-06-14T03:22:55;15.60;99.90
37528;DHT22;23372;52.050;4.810;2023-06-14T03:25:20;15.50;99.90
37528;DHT22;23372;52.050;4.810;2023-06-14T03:27:47;15.40;99.90
37528;DHT22;23372;52.050;4.810;2023-06-14T03:30:13;15.30;99.90
37528;DHT22;23372;52.050;4.810;2023-06-14T03:32:39;15.30;99.90
37528;DHT22;23372;52.050;4.810;2023-06-14T03:35:05;15.30;99.90
37528;DHT22;23372;52.050;4.810;2023-06-14T03:37:30;15.30;99.90
37528;DHT22;23372;52.050;4.810;2023-06-14T03:39:56;15.20;99.90
37528;DHT22;23372;52.050;4.810;2023-06-14T03:42:22;15.20;99.90
37528;DHT22;23372;52.050;4.810;2023-06-14T03:44:47;15.20;99.90
37528;DHT22;23372;52.050;4.810;2023-06-14T03:47:13;15.20;99.90
37528;DHT22;23372;52.050;4.810;2023-06-14T03:49:38;15.20;99.90
37528;DHT22;23372;52.050;4.810;2023-06-14T03:52:04;15.20;99.90
37528;DHT22;23372;52.050;4.810;2023-06-14T03:54:30;15.20;99.90
37528;DHT22;23372;52.050;4.810;2023-06-14T03:56:58;15.30;99.90
37528;DHT22;23372;52.050;4.810;2023-06-14T03:59:23;15.30;99.90
37528;DHT22;23372;52.050;4.810;2023-06-14T04:01:49;15.40;99.90
37528;DHT22;23372;52.050;4.810;2023-06-14T04:04:15;15.50;99.90
37528;DHT22;23372;52.050;4.810;2023-06-14T04:06:43;15.50;99.90
37528;DHT22;23372;52.050;4.810;2023-06-14T04:09:09;15.50;99.90
37528;DHT22;23372;52.050;4.810;2023-06-14T04:11:35;15.60;99.90
37528;DHT22;23372;52.050;4.810;2023-06-14T04:14:02;15.70;99.90
37528;DHT22;23372;52.050;4.810;2023-06-14T04:16:27;15.70;99.90
37528;DHT22;23372;52.050;4.810;2023-06-14T04:18:54;15.80;99.90
37528;DHT22;23372;52.050;4.810;2023-06-14T04:21:20;15.80;99.90
37528;DHT22;23372;52.050;4.810;2023-06-14T04:23:46;15.90;99.90
37528;DHT22;23372;52.050;4.810;2023-06-14T04:26:12;15.90;99.90
37528;DHT22;23372;52.050;4.810;2023-06-14T04:28:37;16.00;99.90
37528;DHT22;23372;52.050;4.810;2023-06-14T04:31:06;16.00;99.90
37528;DHT22;23372;52.050;4.810;2023-06-14T04:33:36;16.10;99.90
37528;DHT22;23372;52.050;4.810;2023-06-14T04:36:11;16.20;99.90
37528;DHT22;23372;52.050;4.810;2023-06-14T04:38:38;16.20;99.90
37528;DHT22;23372;52.050;4.810;2023-06-14T04:41:03;16.20;99.90
37528;DHT22;23372;52.050;4.810;2023-06-14T04:43:30;16.30;99.90
37528;DHT22;23372;52.050;4.810;2023-06-14T04:45:57;16.40;99.90
37528;DHT22;23372;52.050;4.810;2023-06-14T04:48:22;16.50;99.90
37528;DHT22;23372;52.050;4.810;2023-06-14T04:50:48;16.50;99.90
37528;DHT22;23372;52.050;4.810;2023-06-14T04:53:18;16.60;99.90
37528;DHT22;23372;52.050;4.810;2023-06-14T04:55:47;16.70;99.90
37528;DHT22;23372;52.050;4.810;2023-06-14T04:58:12;16.70;99.90
37528;DHT22;23372;52.050;4.810;2023-06-14T05:00:38;16.70;99.90
37528;DHT22;23372;52.050;4.810;2023-06-14T05:03:04;16.80;99.90
37528;DHT22;23372;52.050;4.810;2023-06-14T05:05:31;16.80;99.90
37528;DHT22;23372;52.050;4.810;2023-06-14T05:07:57;16.80;99.90
37528;DHT22;23372;52.050;4.810;2023-06-14T05:10:24;16.90;99.90
37528;DHT22;23372;52.050;4.810;2023-06-14T05:12:49;17.00;99.90
37528;DHT22;23372;52.050;4.810;2023-06-14T05:15:15;17.00;99.90
37528;DHT22;23372;52.050;4.810;2023-06-14T05:17:41;16.90;99.90
37528;DHT22;23372;52.050;4.810;2023-06-14T05:20:08;17.00;99.90
37528;DHT22;23372;52.050;4.810;2023-06-14T05:22:35;17.00;99.90
37528;DHT22;23372;52.050;4.810;2023-06-14T05:25:01;17.10;99.90
37528;DHT22;23372;52.050;4.810;2023-06-14T05:27:27;17.00;99.90
37528;DHT22;23372;52.050;4.810;2023-06-14T05:29:53;17.10;99.90
37528;DHT22;23372;52.050;4.810;2023-06-14T05:32:21;17.20;99.90
37528;DHT22;23372;52.050;4.810;2023-06-14T05:34:46;17.30;99.90
37528;DHT22;23372;52.050;4.810;2023-06-14T05:37:12;17.30;99.90
37528;DHT22;23372;52.050;4.810;2023-06-14T05:39:38;17.30;99.90
37528;DHT22;23372;52.050;4.810;2023-06-14T05:42:04;17.40;99.90
37528;DHT22;23372;52.050;4.810;2023-06-14T05:44:29;17.40;99.90
37528;DHT22;23372;52.050;4.810;2023-06-14T05:46:55;17.50;99.90
37528;DHT22;23372;52.050;4.810;2023-06-14T05:49:21;17.60;99.90
37528;DHT22;23372;52.050;4.810;2023-06-14T05:51:46;17.70;99.90
37528;DHT22;23372;52.050;4.810;2023-06-14T05:54:12;17.70;99.90
37528;DHT22;23372;52.050;4.810;2023-06-14T05:56:37;17.80;99.90
37528;DHT22;23372;52.050;4.810;2023-06-14T05:59:03;17.90;99.90
37528;DHT22;23372;52.050;4.810;2023-06-14T06:01:28;18.00;99.90
37528;DHT22;23372;52.050;4.810;2023-06-14T06:03:54;18.10;99.90
37528;DHT22;23372;52.050;4.810;2023-06-14T06:06:19;18.30;99.90
37528;DHT22;23372;52.050;4.810;2023-06-14T06:08:45;18.60;99.90
37528;DHT22;23372;52.050;4.810;2023-06-14T06:11:11;18.80;99.90
37528;DHT22;23372;52.050;4.810;2023-06-14T06:13:37;18.90;99.90
37528;DHT22;23372;52.050;4.810;2023-06-14T06:16:04;18.90;99.90
37528;DHT22;23372;52.050;4.810;2023-06-14T06:18:30;19.00;99.90
37528;DHT22;23372;52.050;4.810;2023-06-14T06:20:55;19.10;99.90
37528;DHT22;23372;52.050;4.810;2023-06-14T06:23:21;19.40;99.90
37528;DHT22;23372;52.050;4.810;2023-06-14T06:25:46;19.80;99.90
37528;DHT22;23372;52.050;4.810;2023-06-14T06:28:12;20.30;99.90
37528;DHT22;23372;52.050;4.810;2023-06-14T06:30:38;20.70;99.90
37528;DHT22;23372;52.050;4.810;2023-06-14T06:33:04;20.80;99.90
37528;DHT22;23372;52.050;4.810;2023-06-14T06:35:29;20.70;99.90
37528;DHT22;23372;52.050;4.810;2023-06-14T06:37:56;20.60;99.90
37528;DHT22;23372;52.050;4.810;2023-06-14T06:40:22;20.50;99.90
37528;DHT22;23372;52.050;4.810;2023-06-14T06:42:47;20.60;99.90
37528;DHT22;23372;52.050;4.810;2023-06-14T06:45:13;20.60;99.90
37528;DHT22;23372;52.050;4.810;2023-06-14T06:47:38;20.40;99.90
37528;DHT22;23372;52.050;4.810;2023-06-14T06:50:05;20.40;99.90
37528;DHT22;23372;52.050;4.810;2023-06-14T06:52:31;20.40;99.90
37528;DHT22;23372;52.050;4.810;2023-06-14T06:54:57;20.50;99.90
37528;DHT22;23372;52.050;4.810;2023-06-14T06:57:22;20.90;99.90
37528;DHT22;23372;52.050;4.810;2023-06-14T06:59:49;21.10;99.90
37528;DHT22;23372;52.050;4.810;2023-06-14T07:02:15;22.00;99.90
37528;DHT22;23372;52.050;4.810;2023-06-14T07:04:40;23.60;99.90
37528;DHT22;23372;52.050;4.810;2023-06-14T07:07:06;24.60;99.90
37528;DHT22;23372;52.050;4.810;2023-06-14T07:09:32;25.10;99.90
37528;DHT22;23372;52.050;4.810;2023-06-14T07:11:57;25.80;99.90
37528;DHT22;23372;52.050;4.810;2023-06-14T07:14:23;26.60;99.90
37528;DHT22;23372;52.050;4.810;2023-06-14T07:16:49;27.90;99.90
37528;DHT22;23372;52.050;4.810;2023-06-14T07:19:15;28.90;99.90
37528;DHT22;23372;52.050;4.810;2023-06-14T07:21:41;29.60;99.90
37528;DHT22;23372;52.050;4.810;2023-06-14T07:24:06;29.70;99.90
37528;DHT22;23372;52.050;4.810;2023-06-14T07:26:33;29.50;99.90
37528;DHT22;23372;52.050;4.810;2023-06-14T07:28:59;30.70;99.90
37528;DHT22;23372;52.050;4.810;2023-06-14T07:31:24;31.50;99.90
37528;DHT22;23372;52.050;4.810;2023-06-14T07:33:50;32.20;99.90
37528;DHT22;23372;52.050;4.810;2023-06-14T07:36:16;32.80;99.90
37528;DHT22;23372;52.050;4.810;2023-06-14T07:38:43;32.50;99.90
37528;DHT22;23372;52.050;4.810;2023-06-14T07:41:08;32.30;99.90
37528;DHT22;23372;52.050;4.810;2023-06-14T07:43:34;33.40;99.90
37528;DHT22;23372;52.050;4.810;2023-06-14T07:46:00;33.20;99.80
37528;DHT22;23372;52.050;4.810;2023-06-14T07:48:26;32.40;99.90
37528;DHT22;23372;52.050;4.810;2023-06-14T07:50:51;32.10;99.90
37528;DHT22;23372;52.050;4.810;2023-06-14T07:53:17;31.80;99.90
37528;DHT22;23372;52.050;4.810;2023-06-14T07:55:43;32.20;99.90
37528;DHT22;23372;52.050;4.810;2023-06-14T07:58:09;32.40;99.90
37528;DHT22;23372;52.050;4.810;2023-06-14T08:00:34;31.90;99.90
37528;DHT22;23372;52.050;4.810;2023-06-14T08:03:00;31.50;99.90
37528;DHT22;23372;52.050;4.810;2023-06-14T08:05:26;30.80;99.90
37528;DHT22;23372;52.050;4.810;2023-06-14T08:07:52;31.10;99.90
37528;DHT22;23372;52.050;4.810;2023-06-14T08:10:18;30.70;99.90
37528;DHT22;23372;52.050;4.810;2023-06-14T08:12:43;31.00;99.90
37528;DHT22;23372;52.050;4.810;2023-06-14T08:15:09;29.80;99.90
37528;DHT22;23372;52.050;4.810;2023-06-14T08:17:35;29.10;99.90
37528;DHT22;23372;52.050;4.810;2023-06-14T08:20:01;28.20;99.90
37528;DHT22;23372;52.050;4.810;2023-06-14T08:22:28;27.90;99.90
37528;DHT22;23372;52.050;4.810;2023-06-14T08:24:57;27.40;99.90
37528;DHT22;23372;52.050;4.810;2023-06-14T08:27:23;26.90;99.90
37528;DHT22;23372;52.050;4.810;2023-06-14T08:29:48;27.20;99.90
37528;DHT22;23372;52.050;4.810;2023-06-14T08:32:14;27.20;99.90
37528;DHT22;23372;52.050;4.810;2023-06-14T08:34:39;27.20;99.90
37528;DHT22;23372;52.050;4.810;2023-06-14T08:37:05;27.10;99.90
37528;DHT22;23372;52.050;4.810;2023-06-14T08:39:31;26.80;99.90
37528;DHT22;23372;52.050;4.810;2023-06-14T08:41:57;26.80;99.90
37528;DHT22;23372;52.050;4.810;2023-06-14T08:44:23;26.60;99.90
37528;DHT22;23372;52.050;4.810;2023-06-14T08:46:50;26.60;99.90
37528;DHT22;23372;52.050;4.810;2023-06-14T08:49:17;26.50;99.90
37528;DHT22;23372;52.050;4.810;2023-06-14T08:51:43;26.70;99.90
37528;DHT22;23372;52.050;4.810;2023-06-14T08:54:11;26.50;99.90
37528;DHT22;23372;52.050;4.810;2023-06-14T08:56:38;26.30;99.90
37528;DHT22;23372;52.050;4.810;2023-06-14T08:59:04;26.50;99.90
37528;DHT22;23372;52.050;4.810;2023-06-14T09:01:36;26.60;99.90
37528;DHT22;23372;52.050;4.810;2023-06-14T09:04:02;26.30;99.90
37528;DHT22;23372;52.050;4.810;2023-06-14T09:06:30;26.60;99.90
37528;DHT22;23372;52.050;4.810;2023-06-14T09:08:57;26.90;99.90
37528;DHT22;23372;52.050;4.810;2023-06-14T09:11:23;27.10;99.90
37528;DHT22;23372;52.050;4.810;2023-06-14T09:13:49;26.90;99.90
37528;DHT22;23372;52.050;4.810;2023-06-14T09:16:16;26.80;99.90
37528;DHT22;23372;52.050;4.810;2023-06-14T09:18:46;27.10;99.90
37528;DHT22;23372;52.050;4.810;2023-06-14T09:21:16;27.30;99.90
37528;DHT22;23372;52.050;4.810;2023-06-14T09:23:44;27.20;99.90
37528;DHT22;23372;52.050;4.810;2023-06-14T09:26:18;27.40;99.90
37528;DHT22;23372;52.050;4.810;2023-06-14T09:28:49;27.40;99.90
37528;DHT22;23372;52.050;4.810;2023-06-14T09:31:16;27.50;99.90
37528;DHT22;23372;52.050;4.810;2023-06-14T09:33:46;27.50;99.90
37528;DHT22;23372;52.050;4.810;2023-06-14T09:36:22;27.80;99.90
37528;DHT22;23372;52.050;4.810;2023-06-14T09:38:53;28.20;99.90
37528;DHT22;23372;52.050;4.810;2023-06-14T09:41:19;28.40;99.90
37528;DHT22;23372;52.050;4.810;2023-06-14T09:43:46;28.10;99.90
37528;DHT22;23372;52.050;4.810;2023-06-14T09:46:13;27.90;99.90
37528;DHT22;23372;52.050;4.810;2023-06-14T09:48:38;28.20;99.90
37528;DHT22;23372;52.050;4.810;2023-06-14T09:51:12;28.30;99.90
37528;DHT22;23372;52.050;4.810;2023-06-14T09:53:40;28.30;99.90
37528;DHT22;23372;52.050;4.810;2023-06-14T09:56:07;28.50;99.90
37528;DHT22;23372;52.050;4.810;2023-06-14T09:58:34;28.80;99.90
37528;DHT22;23372;52.050;4.810;2023-06-14T10:01:02;28.80;99.90
37528;DHT22;23372;52.050;4.810;2023-06-14T10:03:29;28.80;99.90
37528;DHT22;23372;52.050;4.810;2023-06-14T10:05:58;28.50;99.90
37528;DHT22;23372;52.050;4.810;2023-06-14T10:08:30;28.60;99.90
37528;DHT22;23372;52.050;4.810;2023-06-14T10:10:58;28.80;99.90
37528;DHT22;23372;52.050;4.810;2023-06-14T10:13:25;29.00;99.90
37528;DHT22;23372;52.050;4.810;2023-06-14T10:23:30;28.60;99.40
37528;DHT22;23372;52.050;4.810;2023-06-14T10:25:58;28.50;97.60
37528;DHT22;23372;52.050;4.810;2023-06-14T10:28:26;28.60;99.90
37528;DHT22;23372;52.050;4.810;2023-06-14T10:31:09;28.70;98.20
37528;DHT22;23372;52.050;4.810;2023-06-14T10:39:01;29.20;99.90
37528;DHT22;23372;52.050;4.810;2023-06-14T10:41:29;29.50;99.90
37528;DHT22;23372;52.050;4.810;2023-06-14T10:46:40;29.40;99.00
37528;DHT22;23372;52.050;4.810;2023-06-14T10:49:05;29.40;99.80
37528;DHT22;23372;52.050;4.810;2023-06-14T10:51:42;29.30;98.90
37528;DHT22;23372;52.050;4.810;2023-06-14T10:54:15;29.90;97.20
37528;DHT22;23372;52.050;4.810;2023-06-14T10:56:50;30.10;99.90
37528;DHT22;23372;52.050;4.810;2023-06-14T10:59:17;30.30;97.00
37528;DHT22;23372;52.050;4.810;2023-06-14T11:04:11;30.60;95.20
37528;DHT22;23372;52.050;4.810;2023-06-14T11:06:48;30.40;97.90
37528;DHT22;23372;52.050;4.810;2023-06-14T11:12:03;29.80;97.10
37528;DHT22;23372;52.050;4.810;2023-06-14T11:14:31;30.10;97.00
37528;DHT22;23372;52.050;4.810;2023-06-14T11:16:56;30.40;95.80
37528;DHT22;23372;52.050;4.810;2023-06-14T11:19:22;30.60;96.00
37528;DHT22;23372;52.050;4.810;2023-06-14T11:21:48;30.70;94.50
37528;DHT22;23372;52.050;4.810;2023-06-14T11:24:14;30.70;93.90
37528;DHT22;23372;52.050;4.810;2023-06-14T11:26:40;30.90;93.10
37528;DHT22;23372;52.050;4.810;2023-06-14T11:29:06;30.80;92.10
37528;DHT22;23372;52.050;4.810;2023-06-14T11:31:32;31.20;93.00
37528;DHT22;23372;52.050;4.810;2023-06-14T11:33:59;31.10;93.90
37528;DHT22;23372;52.050;4.810;2023-06-14T11:36:29;31.20;94.70
37528;DHT22;23372;52.050;4.810;2023-06-14T11:39:02;30.90;97.00
37528;DHT22;23372;52.050;4.810;2023-06-14T11:41:37;30.80;97.60
37528;DHT22;23372;52.050;4.810;2023-06-14T11:44:03;30.30;94.60
37528;DHT22;23372;52.050;4.810;2023-06-14T11:46:29;30.30;94.80
37528;DHT22;23372;52.050;4.810;2023-06-14T11:48:55;30.50;96.90
37528;DHT22;23372;52.050;4.810;2023-06-14T11:51:20;31.00;95.90
37528;DHT22;23372;52.050;4.810;2023-06-14T11:53:46;31.00;96.60
37528;DHT22;23372;52.050;4.810;2023-06-14T11:56:12;30.70;96.70
37528;DHT22;23372;52.050;4.810;2023-06-14T11:58:38;30.50;94.40
37528;DHT22;23372;52.050;4.810;2023-06-14T12:01:04;30.60;95.60
37528;DHT22;23372;52.050;4.810;2023-06-14T12:03:29;30.70;95.10
37528;DHT22;23372;52.050;4.810;2023-06-14T12:06:05;30.90;93.70
37528;DHT22;23372;52.050;4.810;2023-06-14T12:08:36;30.90;94.20
37528;DHT22;23372;52.050;4.810;2023-06-14T12:11:14;31.10;93.30
37528;DHT22;23372;52.050;4.810;2023-06-14T12:13:41;30.80;93.90
37528;DHT22;23372;52.050;4.810;2023-06-14T12:16:08;30.80;95.80
37528;DHT22;23372;52.050;4.810;2023-06-14T12:18:39;30.40;96.30
37528;DHT22;23372;52.050;4.810;2023-06-14T12:21:07;30.70;95.00
37528;DHT22;23372;52.050;4.810;2023-06-14T12:23:42;31.00;92.90
37528;DHT22;23372;52.050;4.810;2023-06-14T12:26:08;30.50;96.60
37528;DHT22;23372;52.050;4.810;2023-06-14T12:28:34;30.70;95.60
37528;DHT22;23372;52.050;4.810;2023-06-14T12:30:59;30.60;93.30
37528;DHT22;23372;52.050;4.810;2023-06-14T12:33:25;30.00;92.60
37528;DHT22;23372;52.050;4.810;2023-06-14T12:35:53;30.20;93.30
37528;DHT22;23372;52.050;4.810;2023-06-14T12:38:20;30.20;94.30
37528;DHT22;23372;52.050;4.810;2023-06-14T12:40:46;30.60;93.30
37528;DHT22;23372;52.050;4.810;2023-06-14T12:43:12;31.00;94.10
37528;DHT22;23372;52.050;4.810;2023-06-14T12:45:37;31.10;93.70
37528;DHT22;23372;52.050;4.810;2023-06-14T12:48:03;30.80;93.10
37528;DHT22;23372;52.050;4.810;2023-06-14T12:50:29;30.80;93.60
37528;DHT22;23372;52.050;4.810;2023-06-14T12:52:55;31.00;93.00
37528;DHT22;23372;52.050;4.810;2023-06-14T12:55:21;30.90;94.00
37528;DHT22;23372;52.050;4.810;2023-06-14T12:57:46;30.70;92.40
37528;DHT22;23372;52.050;4.810;2023-06-14T13:00:15;30.80;94.60
37528;DHT22;23372;52.050;4.810;2023-06-14T13:02:40;30.80;92.40
37528;DHT22;23372;52.050;4.810;2023-06-14T13:05:06;30.50;92.20
37528;DHT22;23372;52.050;4.810;2023-06-14T13:07:32;30.40;91.60
37528;DHT22;23372;52.050;4.810;2023-06-14T13:09:58;30.70;94.80
37528;DHT22;23372;52.050;4.810;2023-06-14T13:12:24;30.50;93.60
37528;DHT22;23372;52.050;4.810;2023-06-14T13:14:49;30.40;93.50
37528;DHT22;23372;52.050;4.810;2023-06-14T13:17:15;30.70;91.90
37528;DHT22;23372;52.050;4.810;2023-06-14T13:19:40;30.60;93.70
37528;DHT22;23372;52.050;4.810;2023-06-14T13:22:07;30.20;94.10
37528;DHT22;23372;52.050;4.810;2023-06-14T13:24:34;30.40;93.80
37528;DHT22;23372;52.050;4.810;2023-06-14T13:26:59;30.80;93.20
37528;DHT22;23372;52.050;4.810;2023-06-14T13:29:25;30.90;94.20
37528;DHT22;23372;52.050;4.810;2023-06-14T13:31:52;30.80;93.30
37528;DHT22;23372;52.050;4.810;2023-06-14T13:34:18;31.00;92.20
37528;DHT22;23372;52.050;4.810;2023-06-14T13:36:43;30.70;92.90
37528;DHT22;23372;52.050;4.810;2023-06-14T13:39:09;30.40;94.00
37528;DHT22;23372;52.050;4.810;2023-06-14T13:41:36;30.50;94.60
37528;DHT22;23372;52.050;4.810;2023-06-14T13:44:01;30.60;93.10
37528;DHT22;23372;52.050;4.810;2023-06-14T13:46:29;30.30;91.80
37528;DHT22;23372;52.050;4.810;2023-06-14T13:48:55;30.50;93.60
37528;DHT22;23372;52.050;4.810;2023-06-14T13:51:21;30.60;94.50
37528;DHT22;23372;52.050;4.810;2023-06-14T13:53:48;30.70;92.30
37528;DHT22;23372;52.050;4.810;2023-06-14T13:56:14;30.40;91.80
37528;DHT22;23372;52.050;4.810;2023-06-14T13:58:39;30.10;91.80
37528;DHT22;23372;52.050;4.810;2023-06-14T14:01:05;30.40;93.60
37528;DHT22;23372;52.050;4.810;2023-06-14T14:03:31;30.60;94.10
37528;DHT22;23372;52.050;4.810;2023-06-14T14:05:57;30.40;91.70
37528;DHT22;23372;52.050;4.810;2023-06-14T14:08:22;30.10;93.80
37528;DHT22;23372;52.050;4.810;2023-06-14T14:10:48;29.90;94.20
37528;DHT22;23372;52.050;4.810;2023-06-14T14:13:14;30.30;94.80
37528;DHT22;23372;52.050;4.810;2023-06-14T14:15:39;30.60;94.70
37528;DHT22;23372;52.050;4.810;2023-06-14T14:18:05;30.40;94.10
37528;DHT22;23372;52.050;4.810;2023-06-14T14:20:31;30.60;94.40
37528;DHT22;23372;52.050;4.810;2023-06-14T14:22:56;30.70;94.50
37528;DHT22;23372;52.050;4.810;2023-06-14T14:25:22;30.70;93.60
37528;DHT22;23372;52.050;4.810;2023-06-14T14:27:47;30.60;92.80
37528;DHT22;23372;52.050;4.810;2023-06-14T14:30:13;29.90;92.30
37528;DHT22;23372;52.050;4.810;2023-06-14T14:32:42;29.90;93.40
37528;DHT22;23372;52.050;4.810;2023-06-14T14:35:09;29.70;96.50
37528;DHT22;23372;52.050;4.810;2023-06-14T14:37:36;29.70;96.30
37528;DHT22;23372;52.050;4.810;2023-06-14T14:40:01;30.00;94.90
37528;DHT22;23372;52.050;4.810;2023-06-14T14:42:29;30.40;93.90
37528;DHT22;23372;52.050;4.810;2023-06-14T14:44:54;30.40;94.30
37528;DHT22;23372;52.050;4.810;2023-06-14T14:47:20;30.50;94.40
37528;DHT22;23372;52.050;4.810;2023-06-14T14:49:45;30.20;93.50
37528;DHT22;23372;52.050;4.810;2023-06-14T14:52:11;30.20;93.00
37528;DHT22;23372;52.050;4.810;2023-06-14T14:54:38;30.30;92.80
37528;DHT22;23372;52.050;4.810;2023-06-14T14:57:04;30.40;94.00
37528;DHT22;23372;52.050;4.810;2023-06-14T14:59:30;30.40;93.10
37528;DHT22;23372;52.050;4.810;2023-06-14T15:01:56;29.90;94.40
37528;DHT22;23372;52.050;4.810;2023-06-14T15:04:21;29.60;95.20
37528;DHT22;23372;52.050;4.810;2023-06-14T15:06:47;29.70;94.60
37528;DHT22;23372;52.050;4.810;2023-06-14T15:09:12;29.60;93.60
37528;DHT22;23372;52.050;4.810;2023-06-14T15:11:38;29.30;93.70
37528;DHT22;23372;52.050;4.810;2023-06-14T15:14:04;29.40;93.60
37528;DHT22;23372;52.050;4.810;2023-06-14T15:16:29;29.60;96.10
37528;DHT22;23372;52.050;4.810;2023-06-14T15:18:55;29.40;94.90
37528;DHT22;23372;52.050;4.810;2023-06-14T15:21:20;29.70;94.30
37528;DHT22;23372;52.050;4.810;2023-06-14T15:23:47;29.70;92.80
37528;DHT22;23372;52.050;4.810;2023-06-14T15:26:13;29.80;95.20
37528;DHT22;23372;52.050;4.810;2023-06-14T15:28:38;29.50;94.50
37528;DHT22;23372;52.050;4.810;2023-06-14T15:31:05;29.20;95.90
37528;DHT22;23372;52.050;4.810;2023-06-14T15:33:30;29.20;95.00
37528;DHT22;23372;52.050;4.810;2023-06-14T15:35:57;29.00;95.70
37528;DHT22;23372;52.050;4.810;2023-06-14T15:38:22;29.20;95.60
37528;DHT22;23372;52.050;4.810;2023-06-14T15:40:48;29.40;94.80
37528;DHT22;23372;52.050;4.810;2023-06-14T15:43:14;29.50;96.40
37528;DHT22;23372;52.050;4.810;2023-06-14T15:45:39;29.50;94.60
37528;DHT22;23372;52.050;4.810;2023-06-14T15:48:05;29.40;95.10
37528;DHT22;23372;52.050;4.810;2023-06-14T15:50:31;29.20;94.70
37528;DHT22;23372;52.050;4.810;2023-06-14T15:52:57;29.30;95.20